Terminal Aerodrome Forecast
Issued by NWS Wichita, KS

Home | Current Version | Previous Version | Graphics & Text | Print | Product List | Glossary On
Versions: 1 2 3 4 5 6 7 8 9 10 11 12 13 14 15 16 17 18 19 20 21 22
000
FTUS43 KICT 222320
TAFICT
TAF
KICT 222320Z 2300/2324 15010KT P6SM SCT250
     FM230600 16010KT P6SM BKN040
     FM231500 18015G22KT P6SM BKN040
     FM231800 18020G30KT P6SM BKN040=

USA.gov is the U.S. government's official web portal to all federal, state and local government web resources and services.